createdAt,value
2018-10-11T00:01:29.654Z,9.47
2018-10-11T00:03:57.798Z,9.20
2018-10-11T00:06:25.929Z,9.70
2018-10-11T00:08:54.126Z,9.07
2018-10-11T00:11:22.283Z,10.33
2018-10-11T00:13:50.757Z,9.83
2018-10-11T00:16:18.918Z,11.27
2018-10-11T00:18:47.023Z,10.37
2018-10-11T00:21:15.139Z,10.47
2018-10-11T00:23:43.261Z,10.10
2018-10-11T00:26:11.378Z,9.40
2018-10-11T00:28:39.508Z,10.43
2018-10-11T00:31:07.656Z,9.33
2018-10-11T00:33:35.815Z,11.53
2018-10-11T00:36:04.004Z,11.73
2018-10-11T00:38:32.142Z,10.37
2018-10-11T00:41:00.289Z,8.37
2018-10-11T00:43:28.377Z,10.60
2018-10-11T00:45:56.554Z,9.57
2018-10-11T00:48:24.738Z,9.93
2018-10-11T00:50:52.879Z,8.97
2018-10-11T00:53:21.034Z,10.80
2018-10-11T00:55:49.202Z,9.13
2018-10-11T00:58:17.456Z,10.07
2018-10-11T01:00:45.576Z,10.23
2018-10-11T01:03:13.745Z,8.67
2018-10-11T01:05:41.849Z,10.77
2018-10-11T01:08:10.044Z,9.73
2018-10-11T01:10:38.203Z,10.13
2018-10-11T01:13:06.689Z,9.83
2018-10-11T01:15:34.849Z,9.07
2018-10-11T01:18:03.002Z,9.73
2018-10-11T01:20:31.193Z,9.70
2018-10-11T01:22:59.371Z,9.67
2018-10-11T01:25:27.529Z,9.93
2018-10-11T01:27:55.993Z,9.37
2018-10-11T01:30:24.611Z,9.47
2018-10-11T01:32:53.221Z,10.60
2018-10-11T01:35:21.369Z,9.03
2018-10-11T01:37:49.561Z,10.60
2018-10-11T01:40:17.698Z,9.57
2018-10-11T01:42:46.004Z,9.23
2018-10-11T01:45:14.179Z,9.40
2018-10-11T01:47:42.357Z,9.23
2018-10-11T01:50:10.495Z,9.63
2018-10-11T01:52:38.653Z,9.90
2018-10-11T01:55:06.893Z,9.43
2018-10-11T01:57:35.040Z,9.40
2018-10-11T02:00:03.252Z,9.77
2018-10-11T02:02:31.395Z,9.80
2018-10-11T02:04:59.529Z,10.20
2018-10-11T02:07:27.698Z,9.77
2018-10-11T02:09:55.772Z,10.27
2018-10-11T02:12:23.972Z,9.63
2018-10-11T02:14:52.106Z,10.03
2018-10-11T02:17:20.209Z,9.90
2018-10-11T02:19:48.380Z,9.30
2018-10-11T02:22:16.540Z,8.93
2018-10-11T02:24:44.639Z,8.53
2018-10-11T02:27:12.740Z,10.47
2018-10-11T02:29:40.934Z,8.90
2018-10-11T02:32:09.139Z,9.37
2018-10-11T02:34:37.227Z,10.77
2018-10-11T02:37:05.355Z,8.57
2018-10-11T02:39:33.518Z,9.73
2018-10-11T02:42:01.672Z,8.73
2018-10-11T02:44:29.822Z,9.10
2018-10-11T02:46:57.925Z,9.07
2018-10-11T02:49:26.115Z,10.67
2018-10-11T02:51:54.691Z,9.97
2018-10-11T02:54:22.884Z,9.87
2018-10-11T02:56:55.432Z,9.20
2018-10-11T02:59:29.722Z,9.60
2018-10-11T03:01:58.265Z,9.17
2018-10-11T03:04:27.985Z,10.27
2018-10-11T03:06:56.481Z,8.93
2018-10-11T03:09:24.921Z,9.50
2018-10-11T03:11:53.401Z,9.47
2018-10-11T03:14:21.521Z,9.17
2018-10-11T03:16:49.684Z,9.60
2018-10-11T03:19:17.821Z,9.37
2018-10-11T03:21:45.958Z,7.57
2018-10-11T03:24:14.099Z,10.27
2018-10-11T03:26:42.235Z,10.80
2018-10-11T03:29:10.322Z,10.00
2018-10-11T03:31:38.484Z,9.20
2018-10-11T03:34:06.603Z,10.57
2018-10-11T03:36:34.733Z,10.10
2018-10-11T03:39:03.892Z,10.57
2018-10-11T03:41:32.004Z,10.13
2018-10-11T03:44:00.119Z,11.03
2018-10-11T03:46:28.267Z,10.20
2018-10-11T03:48:56.433Z,11.17
2018-10-11T03:51:24.572Z,11.80
2018-10-11T03:53:52.736Z,11.10
2018-10-11T03:56:20.908Z,11.87
2018-10-11T03:58:49.183Z,11.00
2018-10-11T04:01:17.505Z,12.23
2018-10-11T04:03:45.663Z,11.93
2018-10-11T04:06:13.794Z,10.90
2018-10-11T04:08:41.836Z,12.13
2018-10-11T04:11:10.054Z,10.97
2018-10-11T04:13:38.108Z,12.10
2018-10-11T04:16:06.935Z,13.70
2018-10-11T04:18:35.003Z,12.23
2018-10-11T04:21:03.080Z,11.83
2018-10-11T04:23:31.585Z,11.90
2018-10-11T04:26:00.401Z,10.63
2018-10-11T04:28:29.135Z,11.77
2018-10-11T04:30:58.306Z,11.50
2018-10-11T04:33:26.960Z,10.27
2018-10-11T04:35:55.369Z,12.10
2018-10-11T04:38:23.397Z,11.93
2018-10-11T04:40:51.538Z,12.57
2018-10-11T04:43:19.634Z,11.47
2018-10-11T04:45:47.695Z,11.27
2018-10-11T04:48:15.837Z,11.67
2018-10-11T04:50:44.457Z,11.60
2018-10-11T04:53:13.695Z,11.23
2018-10-11T04:55:42.964Z,10.77
2018-10-11T04:58:11.150Z,10.77
2018-10-11T05:00:39.432Z,11.17
2018-10-11T05:03:08.515Z,11.90
2018-10-11T05:05:36.646Z,12.97
2018-10-11T05:08:04.834Z,12.50
2018-10-11T05:10:32.960Z,13.63
2018-10-11T05:13:01.281Z,12.10
2018-10-11T05:15:29.779Z,11.13
2018-10-11T05:17:58.273Z,12.87
2018-10-11T05:20:26.436Z,11.87
2018-10-11T05:22:54.935Z,13.07
2018-10-11T05:25:23.025Z,14.13
2018-10-11T05:27:51.106Z,13.37
2018-10-11T05:30:19.148Z,12.07
2018-10-11T05:32:47.368Z,11.03
2018-10-11T05:35:15.502Z,10.97
2018-10-11T05:37:43.598Z,9.90
2018-10-11T05:40:11.696Z,11.97
2018-10-11T05:42:39.954Z,11.63
2018-10-11T05:45:12.888Z,11.40
2018-10-11T05:47:41.944Z,11.10
2018-10-11T05:50:10.491Z,10.77
2018-10-11T05:52:38.663Z,9.93
2018-10-11T05:55:06.928Z,10.93
2018-10-11T05:57:35.045Z,10.50
2018-10-11T06:00:03.308Z,9.73
2018-10-11T06:02:31.630Z,9.33
2018-10-11T06:05:00.119Z,9.70
2018-10-11T06:07:28.589Z,8.93
2018-10-11T06:09:56.761Z,10.70
2018-10-11T06:12:24.968Z,11.00
2018-10-11T06:14:53.151Z,11.53
2018-10-11T06:17:21.304Z,10.17
2018-10-11T06:19:49.408Z,9.70
2018-10-11T06:22:17.495Z,10.90
2018-10-11T06:24:45.590Z,10.03
2018-10-11T06:27:13.690Z,10.37
2018-10-11T06:29:41.869Z,9.43
2018-10-11T06:32:10.088Z,10.13
2018-10-11T06:34:38.229Z,10.07
2018-10-11T06:37:06.380Z,10.37
2018-10-11T06:39:34.607Z,9.23
2018-10-11T06:42:02.692Z,9.30
2018-10-11T06:44:30.946Z,8.17
2018-10-11T06:46:59.227Z,8.43
2018-10-11T06:49:27.401Z,7.97
2018-10-11T06:51:55.605Z,9.50
2018-10-11T06:54:23.800Z,7.83
2018-10-11T06:56:51.875Z,8.90
2018-10-11T06:59:20.003Z,8.07
2018-10-11T07:01:48.137Z,9.30
2018-10-11T07:04:16.120Z,7.00
2018-10-11T07:06:44.216Z,7.60
2018-10-11T07:09:12.332Z,9.13
2018-10-11T07:11:40.410Z,8.20
2018-10-11T07:14:08.484Z,9.13
2018-10-11T07:16:36.639Z,8.20
2018-10-11T07:19:05.345Z,7.00
2018-10-11T07:21:33.439Z,9.83
2018-10-11T07:24:01.601Z,8.70
2018-10-11T07:26:29.665Z,7.87
2018-10-11T07:28:57.799Z,8.30
2018-10-11T07:31:25.909Z,9.17
2018-10-11T07:33:54.032Z,7.30
2018-10-11T07:36:22.109Z,8.53
2018-10-11T07:38:50.219Z,9.20
2018-10-11T07:41:18.317Z,8.63
2018-10-11T07:43:46.422Z,8.27
2018-10-11T07:46:14.505Z,7.70
2018-10-11T07:48:42.872Z,9.50
2018-10-11T07:51:11.013Z,7.97
2018-10-11T07:53:39.083Z,9.27
2018-10-11T07:56:07.194Z,7.33
2018-10-11T07:58:35.277Z,9.10
2018-10-11T08:01:03.495Z,9.23
2018-10-11T08:03:31.596Z,8.90
2018-10-11T08:05:59.632Z,8.20
2018-10-11T08:08:27.723Z,7.60
2018-10-11T08:10:55.939Z,7.17
2018-10-11T08:13:24.006Z,8.97
2018-10-11T08:15:52.146Z,8.47
2018-10-11T08:18:20.240Z,9.00
2018-10-11T08:20:48.282Z,8.53
2018-10-11T08:23:16.342Z,7.70
2018-10-11T08:25:45.186Z,8.03
2018-10-11T08:28:12.832Z,8.83
2018-10-11T08:30:40.887Z,9.23
2018-10-11T08:33:09.086Z,9.23
2018-10-11T08:35:37.157Z,7.97
2018-10-11T08:38:05.546Z,9.27
2018-10-11T08:40:33.499Z,9.48
2018-10-11T08:43:01.576Z,8.50
2018-10-11T08:45:29.676Z,10.05
2018-10-11T08:47:57.729Z,9.68
2018-10-11T08:50:25.892Z,9.15
2018-10-11T08:52:53.899Z,9.93
2018-10-11T08:55:22.032Z,9.28
2018-10-11T08:57:50.090Z,10.03
2018-10-11T09:00:18.161Z,11.22
2018-10-11T09:02:46.251Z,9.48
2018-10-11T09:05:14.457Z,10.28
2018-10-11T09:07:42.513Z,10.70
2018-10-11T09:10:10.642Z,10.88
2018-10-11T09:12:38.727Z,11.22
2018-10-11T09:15:07.927Z,10.20
2018-10-11T09:17:36.003Z,11.10
2018-10-11T09:20:04.328Z,11.73
2018-10-11T09:22:32.527Z,10.95
2018-10-11T09:25:00.591Z,10.20
2018-10-11T09:27:28.661Z,9.88
2018-10-11T09:29:56.697Z,10.32
2018-10-11T09:32:24.751Z,10.20
2018-10-11T09:34:52.851Z,11.20
2018-10-11T09:37:20.899Z,10.63
2018-10-11T09:39:48.985Z,9.63
2018-10-11T09:42:17.048Z,9.93
2018-10-11T09:44:45.226Z,10.93
2018-10-11T09:47:13.311Z,10.72
2018-10-11T09:49:41.393Z,9.75
2018-10-11T09:52:09.511Z,11.15
2018-10-11T09:54:37.539Z,10.75
2018-10-11T09:57:19.333Z,11.45
2018-10-11T09:59:47.370Z,10.70
2018-10-11T10:02:15.663Z,9.98
2018-10-11T10:04:47.856Z,9.48
2018-10-11T10:07:15.968Z,9.75
2018-10-11T10:09:44.782Z,9.98
2018-10-11T10:12:13.206Z,9.45
2018-10-11T10:14:42.005Z,9.33
2018-10-11T10:17:10.762Z,10.60
2018-10-11T10:19:38.837Z,9.60
2018-10-11T10:22:06.957Z,10.88
2018-10-11T10:24:35.154Z,9.10
2018-10-11T10:27:03.629Z,10.15
2018-10-11T10:29:31.701Z,10.03
2018-10-11T10:32:00.941Z,9.93
2018-10-11T10:34:29.026Z,9.90
2018-10-11T10:36:57.137Z,10.00
2018-10-11T10:39:25.208Z,9.95
2018-10-11T10:41:53.310Z,9.45
2018-10-11T10:44:22.127Z,8.98
2018-10-11T10:46:50.273Z,9.13
2018-10-11T10:49:18.439Z,10.05
2018-10-11T10:51:46.537Z,10.78
2018-10-11T10:54:22.566Z,10.38
2018-10-11T10:56:51.285Z,9.40
2018-10-11T10:59:19.361Z,10.00
2018-10-11T11:01:47.467Z,10.43
2018-10-11T11:04:15.564Z,9.23
2018-10-11T11:06:43.674Z,9.15
2018-10-11T11:09:12.892Z,8.45
2018-10-11T11:11:41.315Z,9.63
2018-10-11T11:14:10.436Z,8.98
2018-10-11T11:16:38.534Z,10.10
2018-10-11T11:19:06.732Z,8.55
2018-10-11T11:21:34.872Z,9.55
2018-10-11T11:24:02.990Z,8.75
2018-10-11T11:26:31.130Z,8.88
2018-10-11T11:28:59.482Z,9.03
2018-10-11T11:31:27.885Z,9.95
2018-10-11T11:33:55.946Z,10.55
2018-10-11T11:36:24.009Z,11.18
2018-10-11T11:38:52.105Z,9.58
2018-10-11T11:41:20.225Z,9.10
2018-10-11T11:43:48.334Z,9.25
2018-10-11T11:46:16.451Z,9.90
2018-10-11T11:48:44.568Z,9.33
2018-10-11T11:51:13.152Z,9.18
2018-10-11T11:53:42.130Z,9.88
2018-10-11T11:56:10.701Z,9.50
2018-10-11T11:58:39.208Z,9.08
2018-10-11T12:01:08.265Z,9.25
2018-10-11T12:03:36.716Z,9.88
2018-10-11T12:06:04.805Z,10.05
2018-10-11T12:08:33.673Z,9.38
2018-10-11T12:11:02.353Z,10.00
2018-10-11T12:13:30.464Z,10.28
2018-10-11T12:15:58.536Z,9.58
2018-10-11T12:18:26.682Z,8.70
2018-10-11T12:20:54.794Z,9.70
2018-10-11T12:23:22.917Z,9.68
2018-10-11T12:25:51.020Z,9.58
2018-10-11T12:28:19.166Z,10.03
2018-10-11T12:30:47.212Z,9.08
2018-10-11T12:33:15.305Z,9.33
2018-10-11T12:35:43.460Z,8.68
2018-10-11T12:38:11.600Z,9.10
2018-10-11T12:40:39.692Z,9.15
2018-10-11T12:43:07.828Z,9.73
2018-10-11T12:45:36.225Z,8.03
2018-10-11T12:48:04.130Z,9.10
2018-10-11T12:50:32.197Z,7.70
2018-10-11T12:53:00.247Z,7.85
2018-10-11T12:55:28.352Z,9.45
2018-10-11T12:57:56.409Z,9.10
2018-10-11T13:00:24.521Z,8.50
2018-10-11T13:02:52.648Z,9.10
2018-10-11T13:05:20.762Z,8.45
2018-10-11T13:07:48.844Z,7.92
2018-10-11T13:10:16.872Z,6.72
2018-10-11T13:12:44.947Z,7.10
2018-10-11T13:15:13.071Z,6.90
2018-10-11T13:17:43.384Z,6.97
2018-10-11T13:20:09.353Z,7.55
2018-10-11T13:22:37.432Z,7.83
2018-10-11T13:25:05.573Z,6.65
2018-10-11T13:27:33.660Z,6.33
2018-10-11T13:30:01.738Z,5.05
2018-10-11T13:32:29.812Z,5.72
2018-10-11T13:34:57.946Z,6.47
2018-10-11T13:37:26.019Z,6.15
2018-10-11T13:39:56.990Z,5.40
2018-10-11T13:42:22.200Z,6.50
2018-10-11T13:44:50.256Z,5.43
2018-10-11T13:47:18.410Z,7.30
2018-10-11T13:49:46.426Z,6.60
2018-10-11T13:52:17.050Z,5.92
2018-10-11T13:54:42.872Z,5.97
2018-10-11T13:57:10.968Z,6.70
2018-10-11T13:59:39.014Z,6.55
2018-10-11T14:02:07.151Z,6.12
2018-10-11T14:04:35.353Z,6.53
2018-10-11T14:07:03.382Z,6.62
2018-10-11T14:09:31.447Z,7.20
2018-10-11T14:11:59.558Z,7.40
2018-10-11T14:14:27.662Z,7.20
2018-10-11T14:16:55.727Z,6.47
2018-10-11T14:19:23.819Z,7.45
2018-10-11T14:21:51.884Z,6.03
2018-10-11T14:24:19.980Z,7.70
2018-10-11T14:26:48.037Z,6.60
2018-10-11T14:29:16.164Z,6.62
2018-10-11T14:31:44.265Z,6.90
2018-10-11T14:34:12.402Z,7.33
2018-10-11T14:36:40.498Z,6.30
2018-10-11T14:39:08.713Z,5.70
2018-10-11T14:41:36.816Z,6.20
2018-10-11T14:44:05.255Z,6.20
2018-10-11T14:46:33.337Z,6.00
2018-10-11T14:49:01.455Z,5.57
2018-10-11T14:51:29.640Z,5.97
2018-10-11T14:53:59.335Z,5.97
2018-10-11T14:56:25.801Z,6.40
2018-10-11T14:58:53.936Z,6.57
2018-10-11T15:01:22.067Z,6.00
2018-10-11T15:03:50.153Z,5.47
2018-10-11T15:06:18.207Z,5.67
2018-10-11T15:08:46.257Z,6.13
2018-10-11T15:11:14.550Z,6.80
2018-10-11T15:13:42.725Z,7.00
2018-10-11T15:16:11.188Z,6.60
2018-10-11T15:18:39.273Z,5.37
2018-10-11T15:21:07.682Z,5.67
2018-10-11T15:23:35.746Z,6.20
2018-10-11T15:26:04.541Z,5.83
2018-10-11T15:28:32.626Z,6.63
2018-10-11T15:31:00.727Z,5.80
2018-10-11T15:33:28.836Z,5.80
2018-10-11T15:35:56.972Z,6.27
2018-10-11T15:38:25.091Z,5.53
2018-10-11T15:40:53.217Z,5.83
2018-10-11T15:43:21.271Z,5.83
2018-10-11T15:45:49.394Z,5.93
2018-10-11T15:48:17.974Z,7.27
2018-10-11T15:50:46.070Z,5.97
2018-10-11T15:53:15.003Z,5.93
2018-10-11T15:55:43.136Z,6.10
2018-10-11T15:58:11.466Z,5.93
2018-10-11T16:00:39.630Z,6.90
2018-10-11T16:03:07.717Z,6.10
2018-10-11T16:05:35.862Z,5.87
2018-10-11T16:08:03.902Z,6.00
2018-10-11T16:10:31.954Z,6.53
2018-10-11T16:13:00.055Z,7.80
2018-10-11T16:15:28.144Z,7.00
2018-10-11T16:17:56.211Z,6.30
2018-10-11T16:20:24.280Z,7.20
2018-10-11T16:22:52.391Z,7.10
2018-10-11T16:25:20.554Z,7.00
2018-10-11T16:27:48.724Z,7.17
2018-10-11T16:30:16.817Z,6.77
2018-10-11T16:32:44.979Z,6.30
2018-10-11T16:35:13.142Z,7.47
2018-10-11T16:37:41.177Z,6.40
2018-10-11T16:40:09.273Z,6.33
2018-10-11T16:42:37.376Z,6.80
2018-10-11T16:45:06.268Z,6.23
2018-10-11T16:47:34.321Z,7.50
2018-10-11T16:50:02.541Z,8.00
2018-10-11T16:52:30.512Z,8.27
2018-10-11T16:54:58.625Z,7.27
2018-10-11T16:57:26.733Z,7.70
2018-10-11T16:59:55.954Z,7.13
2018-10-11T17:02:26.397Z,7.23
2018-10-11T17:04:54.508Z,8.93
2018-10-11T17:07:24.624Z,7.67
2018-10-11T17:09:53.032Z,8.17
2018-10-11T17:12:20.978Z,8.50
2018-10-11T17:14:50.236Z,8.30
2018-10-11T17:17:18.399Z,7.70
2018-10-11T17:19:48.565Z,8.27
2018-10-11T17:22:16.675Z,9.30
2018-10-11T17:24:46.261Z,9.90
2018-10-11T17:27:15.013Z,8.43
2018-10-11T17:29:43.247Z,9.47
2018-10-11T17:32:12.783Z,9.37
2018-10-11T17:34:41.718Z,8.17
2018-10-11T17:37:10.106Z,7.67
2018-10-11T17:39:38.175Z,7.73
2018-10-11T17:42:06.309Z,8.13
2018-10-11T17:44:34.423Z,9.43
2018-10-11T17:47:02.586Z,8.67
2018-10-11T17:49:30.667Z,9.73
2018-10-11T17:51:58.730Z,9.27
2018-10-11T17:54:26.773Z,9.90
2018-10-11T17:56:54.858Z,9.93
2018-10-11T17:59:23.029Z,10.00
2018-10-11T18:01:51.124Z,8.93
2018-10-11T18:04:19.215Z,9.07
2018-10-11T18:06:47.306Z,9.20
2018-10-11T18:09:15.348Z,9.07
2018-10-11T18:11:44.280Z,8.17
2018-10-11T18:14:12.452Z,9.40
2018-10-11T18:16:40.554Z,9.70
2018-10-11T18:19:08.693Z,8.90
2018-10-11T18:21:36.882Z,8.43
2018-10-11T18:24:04.911Z,9.80
2018-10-11T18:26:33.010Z,9.47
2018-10-11T18:29:01.131Z,9.27
2018-10-11T18:31:29.265Z,11.43
2018-10-11T18:33:57.379Z,9.50
2018-10-11T18:36:25.492Z,9.63
2018-10-11T18:38:53.557Z,10.57
2018-10-11T18:41:21.636Z,8.60
2018-10-11T18:43:49.817Z,9.37
2018-10-11T18:46:17.909Z,10.00
2018-10-11T18:48:46.001Z,8.57
2018-10-11T18:51:14.169Z,9.10
2018-10-11T18:53:42.209Z,8.40
2018-10-11T18:56:10.323Z,9.30
2018-10-11T18:58:38.405Z,8.90
2018-10-11T19:01:06.554Z,9.43
2018-10-11T19:03:34.620Z,8.57
2018-10-11T19:06:02.674Z,8.77
2018-10-11T19:08:30.765Z,7.90
2018-10-11T19:10:58.921Z,7.67
2018-10-11T19:13:26.976Z,8.37
2018-10-11T19:15:55.038Z,9.10
2018-10-11T19:18:23.115Z,10.00
2018-10-11T19:20:51.195Z,9.23
2018-10-11T19:23:20.224Z,10.57
2018-10-11T19:25:48.936Z,9.37
2018-10-11T19:28:17.057Z,8.93
2018-10-11T19:30:45.518Z,11.10
2018-10-11T19:33:13.706Z,10.47
2018-10-11T19:35:41.846Z,10.10
2018-10-11T19:38:09.930Z,10.27
2018-10-11T19:40:38.129Z,10.43
2018-10-11T19:43:06.450Z,11.40
2018-10-11T19:45:34.608Z,11.33
2018-10-11T19:48:02.678Z,11.37
2018-10-11T19:50:30.759Z,11.90
2018-10-11T19:52:59.514Z,11.67
2018-10-11T19:55:27.582Z,11.77
2018-10-11T19:57:55.661Z,11.43
2018-10-11T20:00:23.986Z,10.40
2018-10-11T20:02:52.136Z,11.50
2018-10-11T20:05:20.197Z,12.27
2018-10-11T20:07:51.361Z,9.60
2018-10-11T20:10:20.174Z,11.90
2018-10-11T20:12:48.475Z,11.97
2018-10-11T20:15:16.567Z,12.43
2018-10-11T20:17:44.643Z,12.37
2018-10-11T20:20:12.951Z,11.60
2018-10-11T20:22:41.169Z,10.63
2018-10-11T20:25:09.306Z,10.97
2018-10-11T20:27:37.450Z,11.53
2018-10-11T20:30:05.679Z,12.37
2018-10-11T20:32:33.758Z,11.63
2018-10-11T20:35:01.967Z,11.23
2018-10-11T20:37:30.246Z,12.40
2018-10-11T20:39:58.311Z,11.83
2018-10-11T20:42:27.452Z,10.80
2018-10-11T20:44:55.592Z,12.50
2018-10-11T20:47:23.789Z,12.30
2018-10-11T20:49:52.041Z,12.60
2018-10-11T20:52:20.093Z,11.70
2018-10-11T20:54:48.452Z,12.33
2018-10-11T20:57:16.675Z,13.80
2018-10-11T20:59:44.718Z,12.43
2018-10-11T21:02:12.804Z,11.90
2018-10-11T21:04:40.933Z,12.03
2018-10-11T21:07:08.989Z,13.57
2018-10-11T21:09:37.054Z,13.13
2018-10-11T21:12:05.163Z,13.13
2018-10-11T21:14:33.208Z,13.03
2018-10-11T21:17:01.277Z,12.47
2018-10-11T21:19:29.312Z,12.40
2018-10-11T21:21:57.419Z,13.07
2018-10-11T21:24:25.499Z,12.27
2018-10-11T21:26:53.546Z,12.53
2018-10-11T21:29:21.596Z,12.93
2018-10-11T21:31:49.668Z,12.97
2018-10-11T21:34:17.777Z,13.93
2018-10-11T21:36:45.909Z,13.13
2018-10-11T21:39:13.997Z,11.73
2018-10-11T21:41:42.239Z,13.10
2018-10-11T21:44:10.436Z,13.20
2018-10-11T21:46:39.264Z,12.43
2018-10-11T21:49:07.347Z,12.83
2018-10-11T21:51:35.420Z,12.53
2018-10-11T21:54:03.543Z,13.33
2018-10-11T21:56:31.565Z,12.53
2018-10-11T21:58:59.608Z,12.53
2018-10-11T22:01:27.733Z,12.63
2018-10-11T22:03:55.779Z,13.33
2018-10-11T22:06:23.963Z,14.27
2018-10-11T22:08:52.055Z,12.20
2018-10-11T22:11:20.093Z,14.17
2018-10-11T22:13:48.143Z,15.07
2018-10-11T22:16:16.303Z,12.90
2018-10-11T22:18:44.394Z,14.17
2018-10-11T22:21:12.618Z,14.33
2018-10-11T22:23:43.032Z,14.17
2018-10-11T22:26:11.692Z,14.17
2018-10-11T22:28:40.198Z,13.60
2018-10-11T22:31:10.015Z,13.33
2018-10-11T22:33:38.172Z,12.20
2018-10-11T22:36:06.271Z,12.53
2018-10-11T22:38:34.456Z,12.20
2018-10-11T22:41:02.671Z,13.43
2018-10-11T22:43:31.340Z,12.13
2018-10-11T22:45:59.451Z,14.50
2018-10-11T22:48:27.554Z,12.43
2018-10-11T22:50:55.621Z,12.77
2018-10-11T22:53:23.658Z,11.80
2018-10-11T22:55:51.765Z,13.80
2018-10-11T22:58:19.850Z,13.23
2018-10-11T23:00:47.932Z,14.27
2018-10-11T23:03:16.032Z,13.60
2018-10-11T23:05:44.098Z,13.97
2018-10-11T23:08:12.162Z,13.47
2018-10-11T23:10:40.213Z,14.43
2018-10-11T23:13:08.272Z,14.47
2018-10-11T23:15:36.383Z,12.03
2018-10-11T23:18:04.477Z,14.37
2018-10-11T23:20:32.651Z,12.07
2018-10-11T23:23:00.727Z,12.60
2018-10-11T23:25:28.783Z,13.90
2018-10-11T23:27:56.860Z,14.43
2018-10-11T23:30:24.918Z,13.10
2018-10-11T23:32:52.996Z,12.23
2018-10-11T23:35:21.062Z,13.73
2018-10-11T23:37:49.215Z,14.13
2018-10-11T23:40:17.293Z,14.23
2018-10-11T23:42:45.375Z,13.80
2018-10-11T23:45:13.485Z,13.13
2018-10-11T23:47:42.395Z,14.37
2018-10-11T23:50:10.596Z,13.50
2018-10-11T23:52:38.736Z,14.63
2018-10-11T23:55:07.316Z,15.37
2018-10-11T23:57:35.388Z,14.23
